Matanzas, Cuba
Current Conditions -  °F | °C
As of 2:52 AM on Saturday 25 Oct 2014 (Local Time) from MUVR Reporting Station
Broken Clouds Broken Clouds  
Wind Chill: 77°   Ceiling: 9000
Heat Index: 79°   Visibility: 6mi
Dew Point: 70°   Wind: 12mph
Humidity: 78%   Direction: 360°N
Pressure: 29.83"   Gusts: NA
Location:  23.06°N, 81.58°W
Report Text: MUVR 250652Z 36010KT 9000 SCT015 BKN090 25/21 Q1010
Loading
Personal Weather Stations






























Interactive Weather Map
Tropical Storm Tracking
New forecast layout! Learn more

10-Day Weather Forecast

Advertisements
Track Severe Weather on mobile